createdAt,value
2023-05-15T00:01:06.279Z,12.73
2023-05-15T00:05:08.705Z,15.48
2023-05-15T00:09:10.698Z,14.55
2023-05-15T00:13:12.345Z,15.70
2023-05-15T00:17:14.033Z,17.35
2023-05-15T00:21:15.737Z,17.77
2023-05-15T00:25:19.420Z,17.17
2023-05-15T00:29:21.083Z,17.63
2023-05-15T00:33:22.687Z,17.70
2023-05-15T00:37:24.346Z,18.83
2023-05-15T00:41:28.824Z,19.88
2023-05-15T00:45:30.819Z,20.27
2023-05-15T00:49:35.364Z,21.00
2023-05-15T00:53:38.515Z,19.35
2023-05-15T00:57:43.371Z,20.27
2023-05-15T01:01:45.327Z,22.77
2023-05-15T01:05:47.129Z,25.33
2023-05-15T01:09:50.201Z,28.45
2023-05-15T01:13:51.935Z,27.20
2023-05-15T01:17:53.638Z,27.83
2023-05-15T01:22:03.926Z,27.67
2023-05-15T01:26:37.767Z,28.38
2023-05-15T01:30:43.440Z,26.05
2023-05-15T01:34:55.851Z,27.13
2023-05-15T01:39:01.246Z,29.38
2023-05-15T01:43:09.286Z,27.55
2023-05-15T01:47:14.370Z,23.27
2023-05-15T01:51:17.628Z,21.23
2023-05-15T01:55:21.131Z,19.67
2023-05-15T01:59:23.923Z,19.73
2023-05-15T02:03:26.031Z,19.58
2023-05-15T02:07:28.706Z,20.07
2023-05-15T02:11:30.637Z,20.98
2023-05-15T02:15:32.407Z,21.60
2023-05-15T02:19:34.069Z,22.73
2023-05-15T02:23:35.710Z,23.13
2023-05-15T02:27:59.450Z,23.02
2023-05-15T02:32:37.478Z,22.92
2023-05-15T02:36:42.418Z,20.95
2023-05-15T02:40:47.516Z,19.75
2023-05-15T02:44:52.671Z,22.00
2023-05-15T02:48:55.210Z,24.27
2023-05-15T02:53:10.193Z,24.55
2023-05-15T02:57:11.881Z,21.35
2023-05-15T03:01:13.700Z,21.13
2023-05-15T03:05:15.554Z,21.55
2023-05-15T03:09:17.926Z,21.10
2023-05-15T03:13:19.595Z,21.88
2023-05-15T03:17:21.498Z,24.13
2023-05-15T03:21:23.252Z,24.38
2023-05-15T03:25:25.348Z,24.75
2023-05-15T03:29:27.166Z,25.60
2023-05-15T03:33:28.790Z,22.58
2023-05-15T03:37:30.525Z,23.25
2023-05-15T03:41:32.171Z,24.10
2023-05-15T03:45:37.477Z,25.85
2023-05-15T03:49:39.108Z,28.65
2023-05-15T03:53:40.944Z,31.10
2023-05-15T03:57:42.803Z,34.08
2023-05-15T04:01:59.364Z,34.30
2023-05-15T04:06:05.384Z,32.15
2023-05-15T04:10:07.648Z,32.57
2023-05-15T04:14:09.483Z,34.00
2023-05-15T04:18:11.169Z,31.55
2023-05-15T04:22:13.672Z,26.98
2023-05-15T04:26:15.587Z,27.23
2023-05-15T04:30:48.108Z,26.70
2023-05-15T04:34:49.763Z,28.20
2023-05-15T04:38:51.693Z,30.50
2023-05-15T04:42:53.335Z,28.13
2023-05-15T04:46:55.037Z,27.48
2023-05-15T04:50:56.664Z,27.48
2023-05-15T04:54:58.501Z,32.47
2023-05-15T04:59:00.942Z,31.58
2023-05-15T05:03:02.764Z,31.15
2023-05-15T05:07:05.930Z,31.13
2023-05-15T05:11:07.667Z,26.30
2023-05-15T05:15:10.049Z,26.13
2023-05-15T05:19:12.035Z,26.15
2023-05-15T05:23:15.022Z,28.53
2023-05-15T05:27:16.860Z,28.65
2023-05-15T05:31:18.600Z,30.73
2023-05-15T05:35:20.342Z,31.35
2023-05-15T05:39:22.093Z,30.90
2023-05-15T05:43:26.212Z,30.80
2023-05-15T05:47:27.854Z,31.25
2023-05-15T05:51:29.688Z,32.75
2023-05-15T05:55:31.573Z,31.30
2023-05-15T05:59:33.293Z,29.42
2023-05-15T06:03:35.352Z,29.70
2023-05-15T06:07:37.257Z,28.95
2023-05-15T06:11:39.024Z,28.42
2023-05-15T06:15:41.164Z,29.67
2023-05-15T06:19:42.879Z,28.17
2023-05-15T06:23:44.687Z,29.42
2023-05-15T06:27:47.493Z,30.83
2023-05-15T06:31:49.227Z,27.98
2023-05-15T06:35:50.991Z,28.45
2023-05-15T06:39:52.685Z,29.20
2023-05-15T06:43:55.131Z,31.88
2023-05-15T06:47:59.153Z,31.15
2023-05-15T06:52:02.527Z,29.42
2023-05-15T06:56:04.284Z,32.13
2023-05-15T07:00:06.772Z,32.75
2023-05-15T07:04:08.806Z,33.22
2023-05-15T07:08:10.550Z,34.40
2023-05-15T07:12:12.328Z,33.50
2023-05-15T07:16:13.998Z,38.15
2023-05-15T07:20:15.934Z,38.38
2023-05-15T07:24:17.603Z,35.75
2023-05-15T07:28:19.293Z,33.90
2023-05-15T07:32:21.291Z,34.40
2023-05-15T07:36:23.069Z,32.17
2023-05-15T07:40:24.858Z,31.70
2023-05-15T07:44:26.790Z,33.90
2023-05-15T07:48:28.425Z,28.30
2023-05-15T07:52:30.136Z,26.13
2023-05-15T07:56:33.116Z,22.00
2023-05-15T08:00:34.810Z,27.60
2023-05-15T08:04:36.483Z,25.75
2023-05-15T08:08:38.156Z,24.10
2023-05-15T08:12:46.823Z,22.95
2023-05-15T08:16:49.722Z,22.42
2023-05-15T08:24:53.897Z,23.27
2023-05-15T08:28:58.382Z,22.38
2023-05-15T08:33:00.210Z,17.73
2023-05-15T08:37:01.982Z,20.10
2023-05-15T08:41:10.900Z,19.38
2023-05-15T08:45:13.998Z,20.45
2023-05-15T08:49:30.417Z,17.63
2023-05-15T08:53:32.230Z,17.17
2023-05-15T08:57:34.866Z,18.20
2023-05-15T09:01:36.762Z,17.08
2023-05-15T09:05:40.049Z,16.33
2023-05-15T09:09:44.383Z,17.13
2023-05-15T09:13:46.274Z,17.25
2023-05-15T09:17:48.734Z,16.83
2023-05-15T09:21:50.509Z,14.57
2023-05-15T09:25:56.977Z,12.75
2023-05-15T09:30:09.169Z,11.75
2023-05-15T09:34:10.932Z,10.32
2023-05-15T09:38:13.062Z,11.73
2023-05-15T09:42:16.126Z,12.43
2023-05-15T09:46:18.026Z,12.93
2023-05-15T09:50:22.981Z,12.27
2023-05-15T09:54:27.306Z,13.10
2023-05-15T09:58:29.013Z,12.45
2023-05-15T10:02:32.589Z,11.48
2023-05-15T10:06:42.021Z,11.80
2023-05-15T10:10:45.816Z,11.55
2023-05-15T10:14:48.272Z,13.10
2023-05-15T10:18:52.616Z,13.98
2023-05-15T10:22:56.136Z,12.95
2023-05-15T10:26:58.760Z,12.65
2023-05-15T10:31:01.838Z,12.75
2023-05-15T10:35:04.325Z,13.57
2023-05-15T10:39:08.052Z,13.38
2023-05-15T10:43:13.981Z,13.30
2023-05-15T10:47:15.933Z,16.33
2023-05-15T10:51:19.297Z,14.90
2023-05-15T10:55:22.972Z,15.93
2023-05-15T10:59:32.332Z,12.07
2023-05-15T11:03:49.123Z,10.38
2023-05-15T11:08:23.314Z,9.90
2023-05-15T11:12:25.149Z,8.95
2023-05-15T11:16:54.708Z,10.43
2023-05-15T11:20:59.462Z,9.40
2023-05-15T11:25:12.768Z,10.57
2023-05-15T11:29:18.747Z,11.50
2023-05-15T11:33:21.009Z,11.45
2023-05-15T11:37:24.512Z,11.90
2023-05-15T11:41:31.955Z,12.88
2023-05-15T11:45:40.118Z,15.43
2023-05-15T11:49:42.340Z,14.20
2023-05-15T11:53:44.211Z,14.45
2023-05-15T11:57:47.226Z,12.90
2023-05-15T12:01:49.049Z,11.63
2023-05-15T12:05:59.137Z,12.03
2023-05-15T12:10:02.443Z,12.98
2023-05-15T12:14:04.056Z,12.77
2023-05-15T12:18:09.985Z,14.35
2023-05-15T12:22:11.786Z,16.58
2023-05-15T12:26:13.654Z,13.88
2023-05-15T12:30:15.677Z,14.13
2023-05-15T12:34:17.485Z,12.00
2023-05-15T12:38:22.316Z,12.50
2023-05-15T12:42:24.092Z,16.02
2023-05-15T12:46:29.342Z,14.23
2023-05-15T12:50:33.461Z,13.70
2023-05-15T12:54:42.115Z,12.30
2023-05-15T12:58:44.009Z,11.07
2023-05-15T13:02:46.105Z,13.90
2023-05-15T13:06:48.074Z,11.82
2023-05-15T13:10:57.262Z,11.80
2023-05-15T13:14:58.938Z,13.02
2023-05-15T13:19:00.830Z,9.23
2023-05-15T13:23:03.154Z,8.77
2023-05-15T13:27:05.338Z,8.88
2023-05-15T13:31:07.152Z,10.43
2023-05-15T13:35:10.197Z,7.53
2023-05-15T13:39:11.811Z,9.52
2023-05-15T13:43:13.463Z,11.98
2023-05-15T13:47:15.451Z,8.40
2023-05-15T13:51:17.259Z,9.85
2023-05-15T13:55:20.360Z,9.52
2023-05-15T13:59:24.105Z,11.23
2023-05-15T14:03:25.825Z,9.23
2023-05-15T14:07:27.623Z,13.90
2023-05-15T14:11:29.657Z,11.85
2023-05-15T14:15:31.416Z,13.73
2023-05-15T14:19:33.082Z,12.60
2023-05-15T14:23:34.727Z,10.82
2023-05-15T14:27:36.425Z,9.80
2023-05-15T14:31:38.204Z,14.85
2023-05-15T14:35:40.181Z,16.13
2023-05-15T14:39:42.310Z,17.53
2023-05-15T14:43:43.941Z,21.33
2023-05-15T14:47:45.577Z,22.58
2023-05-15T14:51:47.249Z,22.70
2023-05-15T14:55:48.930Z,22.25
2023-05-15T14:59:50.665Z,22.10
2023-05-15T15:03:52.754Z,21.70
2023-05-15T15:08:01.286Z,23.23
2023-05-15T15:12:02.992Z,22.02
2023-05-15T15:16:04.933Z,22.33
2023-05-15T15:20:07.300Z,21.13
2023-05-15T15:24:09.421Z,22.88
2023-05-15T15:28:11.059Z,20.63
2023-05-15T15:32:12.928Z,20.98
2023-05-15T15:36:14.812Z,22.50
2023-05-15T15:40:16.493Z,18.52
2023-05-15T15:44:18.126Z,19.42
2023-05-15T15:48:20.698Z,21.77
2023-05-15T15:52:22.406Z,23.27
2023-05-15T15:56:24.016Z,19.55
2023-05-15T16:00:26.049Z,20.42
2023-05-15T16:04:27.957Z,21.10
2023-05-15T16:08:29.653Z,20.30
2023-05-15T16:12:31.418Z,18.40
2023-05-15T16:16:33.282Z,18.42
2023-05-15T16:20:35.454Z,21.45
2023-05-15T16:24:37.398Z,18.75
2023-05-15T16:28:39.070Z,16.90
2023-05-15T16:32:40.828Z,20.90
2023-05-15T16:36:42.486Z,21.10
2023-05-15T16:40:44.380Z,17.90
2023-05-15T16:44:46.148Z,18.10
2023-05-15T16:48:47.794Z,17.48
2023-05-15T16:52:49.474Z,18.73
2023-05-15T16:56:51.181Z,19.98
2023-05-15T17:00:52.852Z,17.70
2023-05-15T17:04:55.122Z,18.13
2023-05-15T17:08:56.753Z,18.00
2023-05-15T17:12:58.433Z,19.20
2023-05-15T17:17:00.125Z,20.30
2023-05-15T17:21:01.768Z,21.80
2023-05-15T17:25:04.169Z,21.38
2023-05-15T17:29:05.791Z,21.58
2023-05-15T17:33:07.484Z,21.40
2023-05-15T17:37:10.993Z,22.75
2023-05-15T17:41:12.725Z,22.02
2023-05-15T17:45:14.412Z,22.20
2023-05-15T17:49:16.159Z,21.17
2023-05-15T17:53:25.402Z,21.45
2023-05-15T17:57:27.280Z,21.88
2023-05-15T18:01:29.023Z,22.00
2023-05-15T18:05:30.778Z,25.38
2023-05-15T18:09:32.452Z,20.13
2023-05-15T18:13:34.215Z,16.33
2023-05-15T18:17:36.024Z,12.38
2023-05-15T18:21:38.106Z,14.88
2023-05-15T18:25:40.051Z,10.87
2023-05-15T18:29:43.853Z,14.00
2023-05-15T18:33:46.707Z,15.95
2023-05-15T18:37:48.404Z,18.52
2023-05-15T18:41:50.161Z,19.38
2023-05-15T18:45:51.826Z,19.02
2023-05-15T18:49:53.566Z,20.08
2023-05-15T18:53:55.208Z,19.75
2023-05-15T18:57:56.835Z,18.33
2023-05-15T19:01:58.534Z,17.95
2023-05-15T19:06:00.259Z,19.45
2023-05-15T19:10:01.989Z,20.33
2023-05-15T19:14:03.609Z,18.90
2023-05-15T19:18:08.265Z,15.02
2023-05-15T19:22:09.900Z,14.23
2023-05-15T19:26:11.572Z,11.82
2023-05-15T19:30:13.251Z,12.15
2023-05-15T19:34:15.146Z,11.95
2023-05-15T19:38:16.894Z,11.00
2023-05-15T19:42:18.793Z,11.73
2023-05-15T19:46:20.528Z,12.00
2023-05-15T19:50:22.177Z,12.15
2023-05-15T19:54:23.834Z,11.38
2023-05-15T19:58:25.623Z,11.30
2023-05-15T20:02:27.376Z,12.27
2023-05-15T20:06:29.083Z,10.05
2023-05-15T20:10:30.841Z,9.50
2023-05-15T20:14:34.130Z,10.57
2023-05-15T20:18:36.662Z,8.85
2023-05-15T20:22:43.589Z,11.73
2023-05-15T20:26:45.348Z,10.63
2023-05-15T20:30:47.347Z,11.73
2023-05-15T20:34:49.351Z,11.65
2023-05-15T20:38:52.440Z,11.07
2023-05-15T20:42:54.095Z,9.98
2023-05-15T20:46:56.101Z,8.93
2023-05-15T20:50:58.183Z,7.93
2023-05-15T20:54:59.853Z,8.68
2023-05-15T20:59:01.481Z,9.27
2023-05-15T21:03:03.273Z,8.00
2023-05-15T21:07:05.295Z,8.57
2023-05-15T21:11:07.140Z,9.70
2023-05-15T21:15:09.387Z,9.52
2023-05-15T21:19:11.322Z,8.90
2023-05-15T21:23:13.465Z,8.25
2023-05-15T21:27:15.249Z,9.15
2023-05-15T21:31:16.958Z,8.30
2023-05-15T21:35:18.681Z,9.82
2023-05-15T21:39:20.511Z,7.68
2023-05-15T21:43:22.249Z,7.03
2023-05-15T21:47:24.034Z,7.60
2023-05-15T21:51:25.821Z,7.82
2023-05-15T21:55:27.531Z,6.63
2023-05-15T21:59:29.175Z,6.03
2023-05-15T22:03:31.083Z,6.38
2023-05-15T22:07:32.896Z,7.72
2023-05-15T22:11:34.530Z,7.57
2023-05-15T22:15:36.793Z,7.93
2023-05-15T22:19:42.147Z,7.07
2023-05-15T22:23:43.883Z,7.47
2023-05-15T22:27:45.614Z,8.30
2023-05-15T22:31:47.332Z,8.43
2023-05-15T22:35:48.985Z,7.70
2023-05-15T22:39:50.818Z,7.78
2023-05-15T22:43:52.872Z,6.88
2023-05-15T22:47:54.582Z,7.95
2023-05-15T22:51:57.359Z,7.85
2023-05-15T22:55:59.075Z,7.18
2023-05-15T23:00:02.619Z,7.28
2023-05-15T23:04:04.681Z,8.50
2023-05-15T23:08:06.435Z,8.35
2023-05-15T23:12:08.221Z,7.05
2023-05-15T23:16:10.124Z,7.32
2023-05-15T23:20:13.377Z,7.72
2023-05-15T23:24:15.086Z,6.38
2023-05-15T23:28:16.706Z,6.00
2023-05-15T23:32:18.570Z,5.10
2023-05-15T23:36:20.406Z,5.32
2023-05-15T23:40:22.049Z,5.05
2023-05-15T23:44:23.854Z,5.03
2023-05-15T23:48:25.578Z,4.75
2023-05-15T23:52:27.264Z,5.05
2023-05-15T23:56:28.967Z,5.70
